Time;durP1;ratioP1;P1;durP2;ratioP2;P2;SDS_P1;SDS_P2;PMS_P1;PMS_P2;Temp;Humidity;BMP_temperature;BMP_pressure;BME280_temperature;BME280_humidity;BME280_pressure;Samples;Min_cycle;Max_cycle;Signal;HPM_P1;HPM_P2
2021/03/28 00:00:50;;;;;;;10.23;6.35;;;;;;;-140.79;100.00;63287.88;4984914;28;20113;-78
2021/03/28 00:03:36;;;;;;;9.65;6.15;;;;;;;-140.79;100.00;63287.88;4984948;28;20034;-78
2021/03/28 00:06:27;;;;;;;11.45;6.30;;;;;;;-140.79;100.00;63287.88;4970675;28;20497;-79
2021/03/28 00:09:13;;;;;;;10.38;6.40;;;;;;;-140.79;100.00;63287.88;4970301;28;20050;-77
2021/03/28 00:12:04;;;;;;;10.27;6.43;;;;;;;-140.79;100.00;63287.88;4970272;28;20030;-76
2021/03/28 00:14:46;;;;;;;9.88;6.40;;;;;;;-140.79;100.00;63287.88;4970967;28;20554;-76
2021/03/28 00:17:20;;;;;;;10.98;7.07;;;;;;;-140.79;100.00;63287.88;4984531;28;20520;-77
2021/03/28 00:19:58;;;;;;;10.88;6.72;;;;;;;-140.79;100.00;63287.88;4970153;28;20801;-76
2021/03/28 00:22:33;;;;;;;8.82;6.30;;;;;;;-140.79;100.00;63287.88;4984374;28;20058;-77
2021/03/28 00:25:15;;;;;;;10.90;6.95;;;;;;;-140.79;100.00;63287.88;4984380;28;20159;-79
2021/03/28 00:27:52;;;;;;;10.70;6.22;;;;;;;-140.79;100.00;63287.88;4984510;28;20507;-78
2021/03/28 00:30:36;;;;;;;9.93;6.47;;;;;;;-140.79;100.00;63287.88;4983825;28;20031;-77
2021/03/28 00:33:13;;;;;;;10.05;6.15;;;;;;;-140.79;100.00;63287.88;4985175;28;20496;-77
2021/03/28 00:36:01;;;;;;;9.57;6.30;;;;;;;-140.79;100.00;63287.88;4970387;28;20165;-77
2021/03/28 00:38:43;;;;;;;10.68;6.68;;;;;;;-140.79;100.00;63287.88;4984984;28;20554;-77
2021/03/28 00:41:08;;;;;;;10.70;6.35;;;;;;;-140.79;100.00;63287.88;4970294;28;20040;-78
2021/03/28 00:44:05;;;;;;;11.38;7.03;;;;;;;-140.79;100.00;63287.88;4969915;28;20439;-79
2021/03/28 00:46:49;;;;;;;10.00;6.75;;;;;;;-140.79;100.00;63287.88;4982291;28;20413;-77
2021/03/28 00:49:31;;;;;;;10.57;6.65;;;;;;;-140.79;100.00;63287.88;4984214;28;20113;-77
2021/03/28 00:52:21;;;;;;;10.77;6.70;;;;;;;-140.79;100.00;63287.88;4984880;28;20030;-77
2021/03/28 00:55:10;;;;;;;;;;;;;;;-140.79;100.00;63287.88;4966907;28;20043;-77
2021/03/28 00:57:38;;;;;;;18.15;7.47;;;;;;;-140.79;100.00;63287.88;4942662;28;19919;-78
2021/03/28 01:00:18;;;;;;;12.63;7.22;;;;;;;-140.79;100.00;63287.88;4933449;29;20027;-77
2021/03/28 01:02:55;;;;;;;10.90;6.78;;;;;;;-140.79;100.00;63287.88;4957098;28;20567;-75
2021/03/28 01:05:29;;;;;;;10.98;7.20;;;;;;;-140.79;100.00;63287.88;4968556;28;20145;-77
2021/03/28 01:08:22;;;;;;;9.88;7.05;;;;;;;-140.79;100.00;63287.88;4984220;28;20031;-77
2021/03/28 01:11:46;;;;;;;11.23;7.50;;;;;;;-140.79;100.00;63287.88;4966897;28;20050;-77
2021/03/28 01:14:36;;;;;;;12.18;7.68;;;;;;;-140.79;100.00;63287.88;4912015;29;20024;-76
2021/03/28 01:17:34;;;;;;;11.43;6.85;;;;;;;-140.79;100.00;63287.88;4914219;29;20521;-79
2021/03/28 01:20:27;;;;;;;10.98;7.38;;;;;;;-140.79;100.00;63287.88;4975034;28;20034;-78
2021/03/28 01:23:06;;;;;;;10.45;6.63;;;;;;;-140.79;100.00;63287.88;4961883;28;20035;-77
2021/03/28 01:26:03;;;;;;;11.10;6.95;;;;;;;-140.79;100.00;63287.88;4962375;28;20406;-78
2021/03/28 01:28:43;;;;;;;12.25;7.25;;;;;;;-140.79;100.00;63287.88;4954098;28;20034;-78
2021/03/28 01:31:28;;;;;;;13.13;7.65;;;;;;;-140.79;100.00;63287.88;4938636;29;20924;-77
2021/03/28 01:34:15;;;;;;;11.85;7.43;;;;;;;-140.79;100.00;63287.88;4952596;29;20524;-76
2021/03/28 01:36:46;;;;;;;11.10;7.75;;;;;;;-140.79;100.00;63287.88;4937139;29;20484;-77
2021/03/28 01:39:35;;;;;;;11.48;7.30;;;;;;;-140.79;100.00;63287.88;4949295;29;20107;-78
2021/03/28 01:42:03;;;;;;;11.60;7.68;;;;;;;-140.79;100.00;63287.88;4956413;28;20023;-76
2021/03/28 01:44:51;;;;;;;12.27;7.53;;;;;;;-140.79;100.00;63287.88;4949565;29;20055;-78
2021/03/28 01:47:19;;;;;;;11.50;7.80;;;;;;;-140.79;100.00;63287.88;4944507;29;20085;-78
2021/03/28 01:50:05;;;;;;;11.07;7.93;;;;;;;-140.79;100.00;63287.88;4953956;29;20042;-78
2021/03/28 01:52:55;;;;;;;12.68;8.15;;;;;;;-140.79;100.00;63287.88;4952239;28;20024;-75
2021/03/28 01:55:47;;;;;;;12.73;8.13;;;;;;;-140.79;100.00;63287.88;4972028;28;20050;-76
2021/03/28 01:58:30;;;;;;;12.70;7.78;;;;;;;-140.79;100.00;63287.88;4964764;28;20043;-76
2021/03/28 02:01:23;;;;;;;12.35;7.97;;;;;;;-140.79;100.00;63287.88;4972762;28;20089;-77
2021/03/28 02:03:48;;;;;;;11.52;7.95;;;;;;;-140.79;100.00;63287.88;4972804;28;20501;-77
2021/03/28 02:06:50;;;;;;;13.35;8.25;;;;;;;-140.79;100.00;63287.88;4972830;28;20113;-75
2021/03/28 02:09:40;;;;;;;13.85;8.55;;;;;;;-140.79;100.00;63287.88;4958499;28;20425;-77
2021/03/28 02:12:18;;;;;;;12.98;7.88;;;;;;;-140.79;100.00;63287.88;4957860;28;20416;-77
2021/03/28 02:15:09;;;;;;;12.48;8.23;;;;;;;-140.79;100.00;63287.88;4985201;28;20026;-75
2021/03/28 02:18:24;;;;;;;13.73;8.13;;;;;;;-140.79;100.00;63287.88;4986470;28;20060;-77
2021/03/28 02:20:55;;;;;;;15.00;8.48;;;;;;;-140.79;100.00;63287.88;4963030;28;20113;-78
2021/03/28 02:23:39;;;;;;;13.35;8.35;;;;;;;-140.79;100.00;63287.88;4971167;28;20550;-78
2021/03/28 02:26:41;;;;;;;11.88;7.88;;;;;;;-140.79;100.00;63287.88;4970707;28;20062;-77
2021/03/28 02:29:20;;;;;;;12.88;8.00;;;;;;;-140.79;100.00;63287.88;4971312;28;20506;-77
2021/03/28 02:32:20;;;;;;;13.73;8.55;;;;;;;-140.79;100.00;63287.88;4971849;28;20408;-78
2021/03/28 02:35:03;;;;;;;14.37;8.77;;;;;;;-140.79;100.00;63287.88;4972160;28;20023;-77
2021/03/28 02:38:13;;;;;;;13.35;8.45;;;;;;;-140.79;100.00;63287.88;4986143;28;20034;-78
2021/03/28 02:40:38;;;;;;;;;;;;;;;-140.79;100.00;63287.88;4965955;28;20156;-78
2021/03/28 02:43:30;;;;;;;13.73;8.18;;;;;;;-140.79;100.00;63287.88;4971415;28;19957;-77
2021/03/28 02:46:18;;;;;;;13.40;8.73;;;;;;;-140.79;100.00;63287.88;4984520;28;20082;-78
2021/03/28 02:48:44;;;;;;;14.35;8.48;;;;;;;-140.79;100.00;63287.88;4985508;28;20033;-78
2021/03/28 02:51:22;;;;;;;13.60;8.82;;;;;;;-140.79;100.00;63287.88;4939889;29;20860;-77
2021/03/28 02:54:02;;;;;;;15.20;8.68;;;;;;;-140.79;100.00;63287.88;4955399;28;20089;-78
2021/03/28 02:56:37;;;;;;;15.55;8.75;;;;;;;-140.79;100.00;63287.88;4970841;28;20591;-77
2021/03/28 02:59:25;;;;;;;13.93;8.75;;;;;;;-140.79;100.00;63287.88;4971911;28;20043;-78
2021/03/28 03:02:12;;;;;;;13.98;8.77;;;;;;;-140.79;100.00;63287.88;4984074;28;20530;-78
2021/03/28 03:05:25;;;;;;;15.38;9.10;;;;;;;-140.79;100.00;63287.88;4971532;28;20067;-77
2021/03/28 03:07:59;;;;;;;14.35;9.25;;;;;;;-140.79;100.00;63287.88;4949487;28;20516;-77
2021/03/28 03:10:31;;;;;;;13.10;8.75;;;;;;;-140.79;100.00;63287.88;4937996;28;20062;-77
2021/03/28 03:13:10;;;;;;;13.98;9.50;;;;;;;-140.79;100.00;63287.88;4960232;28;20488;-78
2021/03/28 03:16:17;;;;;;;13.75;9.10;;;;;;;-140.79;100.00;63287.88;4951130;29;20039;-78
2021/03/28 03:18:55;;;;;;;14.80;8.70;;;;;;;-140.79;100.00;63287.88;4957685;28;20041;-78
2021/03/28 03:21:41;;;;;;;15.27;10.25;;;;;;;-140.79;100.00;63287.88;4970984;28;20042;-77
2021/03/28 03:24:30;;;;;;;12.63;8.55;;;;;;;-140.79;100.00;63287.88;4970844;28;20129;-77
2021/03/28 03:27:17;;;;;;;15.93;9.50;;;;;;;-140.79;100.00;63287.88;4971097;28;20066;-77
2021/03/28 03:30:04;;;;;;;14.25;9.07;;;;;;;-140.79;100.00;63287.88;4985754;28;20488;-78
2021/03/28 03:32:38;;;;;;;15.75;9.55;;;;;;;-140.79;100.00;63287.88;4971037;28;20417;-77
2021/03/28 03:35:15;;;;;;;15.27;8.90;;;;;;;-140.79;100.00;63287.88;4970749;28;20070;-76
2021/03/28 03:38:00;;;;;;;14.38;8.85;;;;;;;-140.79;100.00;63287.88;4985716;28;20031;-77
2021/03/28 03:40:40;;;;;;;15.07;9.45;;;;;;;-140.79;100.00;63287.88;4983295;28;20023;-78
2021/03/28 03:43:23;;;;;;;14.98;9.70;;;;;;;-140.79;100.00;63287.88;4970746;28;20026;-77
2021/03/28 03:46:08;;;;;;;14.93;8.73;;;;;;;-140.79;100.00;63287.88;4970984;28;20525;-78
2021/03/28 03:48:58;;;;;;;13.23;9.32;;;;;;;-140.79;100.00;63287.88;4971124;28;20051;-77
2021/03/28 03:51:29;;;;;;;13.90;8.55;;;;;;;-140.79;100.00;63287.88;4970569;28;20034;-78
2021/03/28 03:54:11;;;;;;;14.07;9.10;;;;;;;-140.79;100.00;63287.88;4948760;28;20034;-78
2021/03/28 03:56:39;;;;;;;16.38;9.50;;;;;;;-140.79;100.00;63287.88;4953646;28;20038;-76
2021/03/28 03:59:16;;;;;;;14.23;9.43;;;;;;;-140.79;100.00;63287.88;4945856;29;20027;-77
2021/03/28 04:02:02;;;;;;;15.40;9.38;;;;;;;-140.79;100.00;63287.88;4955089;28;20046;-78
2021/03/28 04:05:09;;;;;;;14.88;9.32;;;;;;;-140.79;100.00;63287.88;4951213;28;20100;-78
2021/03/28 04:07:46;;;;;;;14.52;9.52;;;;;;;-140.79;100.00;63287.88;4951128;29;20125;-77
2021/03/28 04:10:16;;;;;;;13.27;9.02;;;;;;;-140.79;100.00;63287.88;4953807;28;20113;-78
2021/03/28 04:13:26;;;;;;;16.42;9.20;;;;;;;-140.79;100.00;63287.88;4965894;28;20039;-78
2021/03/28 04:16:11;;;;;;;15.15;9.48;;;;;;;-140.79;100.00;63287.88;4949306;29;20547;-78
2021/03/28 04:18:48;;;;;;;17.20;9.25;;;;;;;-140.79;100.00;63287.88;4950010;29;20050;-78
2021/03/28 04:21:22;;;;;;;16.75;9.88;;;;;;;-140.79;100.00;63287.88;4935462;29;20041;-77
2021/03/28 04:24:06;;;;;;;15.18;9.55;;;;;;;-140.79;100.00;63287.88;4946861;29;20035;-77
2021/03/28 04:26:44;;;;;;;14.20;9.20;;;;;;;-140.79;100.00;63287.88;4946492;29;20035;-77
2021/03/28 04:29:11;;;;;;;14.27;9.38;;;;;;;-140.79;100.00;63287.88;4947101;29;20031;-77
2021/03/28 04:32:04;;;;;;;14.93;9.63;;;;;;;-140.79;100.00;63287.88;4931042;29;20480;-78
2021/03/28 04:34:51;;;;;;;15.45;10.05;;;;;;;-140.79;100.00;63287.88;4931876;29;20516;-77
2021/03/28 04:37:58;;;;;;;16.88;10.30;;;;;;;-140.79;100.00;63287.88;4949746;29;20023;-78
2021/03/28 04:40:31;;;;;;;15.40;9.43;;;;;;;-140.79;100.00;63287.88;4950674;28;20055;-78
2021/03/28 04:43:22;;;;;;;15.57;8.85;;;;;;;-140.79;100.00;63287.88;4951111;29;20125;-78
2021/03/28 04:45:59;;;;;;;14.85;9.27;;;;;;;-140.79;100.00;63287.88;4949685;29;20027;-77
2021/03/28 04:48:32;;;;;;;13.88;8.70;;;;;;;-140.79;100.00;63287.88;4933711;29;20027;-78
2021/03/28 04:51:04;;;;;;;14.82;8.70;;;;;;;-140.79;100.00;63287.88;4949544;29;20031;-78
2021/03/28 04:53:54;;;;;;;14.45;8.95;;;;;;;-140.79;100.00;63287.88;4947287;29;20093;-79
2021/03/28 04:56:38;;;;;;;;;;;;;;;-140.79;100.00;63287.88;4951060;28;20126;-77
2021/03/28 04:59:10;;;;;;;16.05;8.88;;;;;;;-140.79;100.00;63287.88;4950686;29;19910;-79
2021/03/28 05:02:00;;;;;;;14.85;9.48;;;;;;;-140.79;100.00;63287.88;4950939;29;20030;-78
2021/03/28 05:04:38;;;;;;;14.48;9.23;;;;;;;-140.79;100.00;63287.88;4965503;28;20074;-79
2021/03/28 05:07:21;;;;;;;15.07;9.38;;;;;;;-140.79;100.00;63287.88;4952152;28;20035;-76
2021/03/28 05:09:49;;;;;;;14.05;9.15;;;;;;;-140.79;100.00;63287.88;4970286;28;20034;-77
2021/03/28 05:12:21;;;;;;;15.55;9.65;;;;;;;-140.79;100.00;63287.88;4970111;28;20062;-74
2021/03/28 05:15:04;;;;;;;15.18;9.15;;;;;;;-140.79;100.00;63287.88;4969619;28;20031;-76
2021/03/28 05:17:32;;;;;;;15.27;9.20;;;;;;;-140.79;100.00;63287.88;4969864;28;20589;-77
2021/03/28 05:20:13;;;;;;;14.60;9.20;;;;;;;-140.79;100.00;63287.88;4969776;28;20053;-74
2021/03/28 05:22:57;;;;;;;15.70;9.65;;;;;;;-140.79;100.00;63287.88;4982893;28;20480;-77
2021/03/28 05:25:32;;;;;;;14.35;9.43;;;;;;;-140.79;100.00;63287.88;4969552;28;20037;-75
2021/03/28 05:28:29;;;;;;;13.70;8.75;;;;;;;-140.79;100.00;63287.88;4969558;28;20038;-76
2021/03/28 05:30:58;;;;;;;16.27;9.45;;;;;;;-140.79;100.00;63287.88;4985231;28;20129;-77
2021/03/28 05:33:42;;;;;;;15.27;9.13;;;;;;;-140.79;100.00;63287.88;4969614;28;20043;-77
2021/03/28 05:36:26;;;;;;;16.80;9.57;;;;;;;-140.79;100.00;63287.88;4984885;28;20049;-77
2021/03/28 05:39:00;;;;;;;15.02;9.70;;;;;;;-140.79;100.00;63287.88;4969683;28;20039;-76
2021/03/28 05:42:07;;;;;;;14.60;9.73;;;;;;;-140.79;100.00;63287.88;4984747;28;20097;-77
2021/03/28 05:44:51;;;;;;;14.30;8.48;;;;;;;-140.79;100.00;63287.88;4964435;28;20035;-76
2021/03/28 05:47:41;;;;;;;14.40;9.68;;;;;;;-140.79;100.00;63287.88;4931137;29;19922;-78
2021/03/28 05:50:10;;;;;;;14.88;9.13;;;;;;;-140.79;100.00;63287.88;4945196;29;20032;-80
2021/03/28 05:52:41;;;;;;;15.68;9.38;;;;;;;-140.79;100.00;63287.88;4931211;29;20074;-74
2021/03/28 05:55:28;;;;;;;14.48;9.43;;;;;;;-140.79;100.00;63287.88;4930890;29;20110;-78
2021/03/28 05:58:03;;;;;;;15.75;9.45;;;;;;;-140.79;100.00;63287.88;4945787;29;20035;-77
2021/03/28 06:00:41;;;;;;;15.35;9.80;;;;;;;-140.79;100.00;63287.88;4943784;29;20035;-75
2021/03/28 06:03:34;;;;;;;15.73;9.30;;;;;;;-140.79;100.00;63287.88;4953784;29;20054;-81
2021/03/28 06:06:37;;;;;;;14.50;9.40;;;;;;;-140.79;100.00;63287.88;4935123;29;20043;-82
2021/03/28 06:09:36;;;;;;;13.40;9.30;;;;;;;-140.79;100.00;63287.88;4934734;29;20489;-82
2021/03/28 06:12:20;;;;;;;14.73;9.30;;;;;;;-140.79;100.00;63287.88;4937960;28;20058;-82
2021/03/28 06:14:55;;;;;;;15.48;9.35;;;;;;;-140.79;100.00;63287.88;4954101;29;20023;-82
2021/03/28 06:17:36;;;;;;;17.05;10.18;;;;;;;-140.79;100.00;63287.88;4952029;29;20027;-79
2021/03/28 06:20:22;;;;;;;15.70;10.00;;;;;;;-140.79;100.00;63287.88;4953172;29;20054;-79
2021/03/28 06:23:12;;;;;;;16.88;10.30;;;;;;;-140.79;100.00;63287.88;4961943;28;20038;-78
2021/03/28 06:26:12;;;;;;;16.23;9.57;;;;;;;-140.79;100.00;63287.88;4972576;28;20054;-75
2021/03/28 06:29:17;;;;;;;16.67;10.38;;;;;;;-140.79;100.00;63287.88;4981082;28;20809;-79
2021/03/28 06:31:54;;;;;;;15.95;9.23;;;;;;;-140.79;100.00;63287.88;4942105;28;20464;-77
2021/03/28 06:34:23;;;;;;;14.40;9.55;;;;;;;-140.79;100.00;63287.88;4955242;28;20039;-77
2021/03/28 06:37:17;;;;;;;13.18;9.73;;;;;;;-140.79;100.00;63287.88;4953141;28;20484;-77
2021/03/28 06:39:58;;;;;;;15.18;8.85;;;;;;;-140.79;100.00;63287.88;4960107;28;20027;-76
2021/03/28 06:42:50;;;;;;;16.95;10.15;;;;;;;-140.79;100.00;63287.88;4955632;28;20037;-77
2021/03/28 06:45:15;;;;;;;14.07;8.80;;;;;;;-140.79;100.00;63287.88;4949832;28;20098;-78
2021/03/28 06:47:58;;;;;;;15.98;9.00;;;;;;;-140.79;100.00;63287.88;4952785;29;20031;-76
2021/03/28 06:50:40;;;;;;;18.48;10.32;;;;;;;-140.79;100.00;63287.88;4951830;29;20118;-88
2021/03/28 06:53:36;;;;;;;16.92;10.10;;;;;;;-140.79;100.00;63287.88;4951674;29;20505;-76
2021/03/28 06:56:17;;;;;;;15.82;9.90;;;;;;;-140.79;100.00;63287.88;4953858;29;20023;-78
2021/03/28 06:59:10;;;;;;;17.25;10.00;;;;;;;-140.79;100.00;63287.88;4960241;28;20066;-74
2021/03/28 07:01:54;;;;;;;17.17;10.52;;;;;;;-140.79;100.00;63287.88;4952657;28;20488;-76
2021/03/28 07:04:57;;;;;;;16.58;10.20;;;;;;;-140.79;100.00;63287.88;4952402;29;20075;-75
2021/03/28 07:07:29;;;;;;;15.75;9.60;;;;;;;-140.79;100.00;63287.88;4953920;29;20670;-76
2021/03/28 07:10:13;;;;;;;18.60;9.35;;;;;;;-140.79;100.00;63287.88;4968961;28;20476;-76
2021/03/28 07:13:11;;;;;;;17.73;9.90;;;;;;;-140.79;100.00;63287.88;4955472;28;20483;-77
2021/03/28 07:15:58;;;;;;;32.15;17.67;;;;;;;-140.79;100.00;63287.88;4951907;29;20051;-73
2021/03/28 07:18:32;;;;;;;26.92;18.23;;;;;;;-140.79;100.00;63287.88;4959863;28;20039;-79
2021/03/28 07:21:21;;;;;;;17.00;10.60;;;;;;;-140.79;100.00;63287.88;4960754;28;20576;-76
2021/03/28 07:23:59;;;;;;;16.48;10.15;;;;;;;-140.79;100.00;63287.88;4957010;28;20035;-74
2021/03/28 07:26:56;;;;;;;16.58;10.00;;;;;;;-140.79;100.00;63287.88;4955047;29;20031;-73
2021/03/28 07:29:59;;;;;;;16.45;10.52;;;;;;;-140.79;100.00;63287.88;4952506;28;20038;-73
2021/03/28 07:32:53;;;;;;;18.35;10.40;;;;;;;-140.79;100.00;63287.88;4959082;28;20213;-75
2021/03/28 07:35:37;;;;;;;16.38;10.25;;;;;;;-140.79;100.00;63287.88;4918441;29;20039;-75
2021/03/28 07:38:35;;;;;;;18.13;9.63;;;;;;;-140.79;100.00;63287.88;4953433;28;20035;-75
2021/03/28 07:41:00;;;;;;;15.73;9.60;;;;;;;-140.79;100.00;63287.88;4947057;28;20042;-77
2021/03/28 07:44:07;;;;;;;14.70;9.32;;;;;;;-140.79;100.00;63287.88;4948436;28;20027;-76
2021/03/28 07:46:48;;;;;;;15.98;9.75;;;;;;;-140.79;100.00;63287.88;4945973;28;20485;-87
2021/03/28 07:49:36;;;;;;;16.23;9.82;;;;;;;-140.79;100.00;63287.88;4955596;28;20093;-79
2021/03/28 07:52:20;;;;;;;16.48;10.00;;;;;;;-140.79;100.00;63287.88;4970140;28;20019;-79
2021/03/28 07:54:49;;;;;;;13.73;9.00;;;;;;;-140.79;100.00;63287.88;4954539;28;20489;-75
2021/03/28 07:57:26;;;;;;;13.95;9.82;;;;;;;-140.79;100.00;63287.88;4964131;28;20030;-78
2021/03/28 08:00:09;;;;;;;14.52;9.35;;;;;;;-140.79;100.00;63287.88;4960729;28;20058;-78
2021/03/28 08:02:47;;;;;;;14.32;9.35;;;;;;;-140.79;100.00;63287.88;4953728;28;20065;-78
2021/03/28 08:05:18;;;;;;;15.40;9.73;;;;;;;-140.79;100.00;63287.88;4948739;28;20768;-75
2021/03/28 08:08:25;;;;;;;14.68;9.10;;;;;;;-140.79;100.00;63287.88;4959140;28;20037;-74
2021/03/28 08:11:18;;;;;;;15.13;8.93;;;;;;;-140.79;100.00;63287.88;4921628;29;20123;-76
2021/03/28 08:14:10;;;;;;;15.18;8.65;;;;;;;-140.79;100.00;63287.88;4963294;28;20467;-74
2021/03/28 08:16:42;;;;;;;15.45;9.25;;;;;;;-140.79;100.00;63287.88;4979203;28;20034;-76
2021/03/28 08:19:35;;;;;;;14.30;8.90;;;;;;;-140.79;100.00;63287.88;4970694;28;20035;-75
2021/03/28 08:22:28;;;;;;;13.82;8.98;;;;;;;-140.79;100.00;63287.88;4964946;28;20051;-75
2021/03/28 08:25:15;;;;;;;13.88;9.30;;;;;;;-140.79;100.00;63287.88;4940476;28;20468;-75
2021/03/28 08:28:07;;;;;;;13.98;9.18;;;;;;;-140.79;100.00;63287.88;4945733;28;20030;-77
2021/03/28 08:30:32;;;;;;;15.35;9.05;;;;;;;-140.79;100.00;63287.88;4932139;28;20032;-78
2021/03/28 08:33:19;;;;;;;14.82;9.38;;;;;;;-140.79;100.00;63287.88;4952258;28;20211;-78
2021/03/28 08:35:52;;;;;;;14.32;8.68;;;;;;;-140.79;100.00;63287.88;4958992;28;20039;-77
2021/03/28 08:38:35;;;;;;;15.13;9.18;;;;;;;-140.79;100.00;63287.88;4978114;28;20562;-76
2021/03/28 08:41:33;;;;;;;14.35;9.50;;;;;;;-140.79;100.00;63287.88;4958344;28;20027;-77
2021/03/28 08:44:38;;;;;;;12.07;9.10;;;;;;;-140.79;100.00;63287.88;4949651;28;20073;-75
2021/03/28 08:47:40;;;;;;;16.17;8.95;;;;;;;-140.79;100.00;63287.88;4964358;28;20027;-78
2021/03/28 08:50:33;;;;;;;12.95;8.82;;;;;;;-140.79;100.00;63287.88;4948302;28;20035;-78
2021/03/28 08:53:14;;;;;;;14.70;10.30;;;;;;;-140.79;100.00;63287.88;4980712;28;20516;-77
2021/03/28 08:56:00;;;;;;;14.48;9.10;;;;;;;-140.79;100.00;63287.88;4961383;28;20106;-75
2021/03/28 08:58:34;;;;;;;14.50;8.90;;;;;;;-140.79;100.00;63287.88;4966656;28;20047;-77
2021/03/28 09:01:14;;;;;;;14.07;9.13;;;;;;;-140.79;100.00;63287.88;4950444;28;20579;-77
2021/03/28 09:04:01;;;;;;;12.30;9.15;;;;;;;-140.79;100.00;63287.88;4948954;28;20167;-77
2021/03/28 09:06:42;;;;;;;14.88;9.50;;;;;;;-140.79;100.00;63287.88;4959945;28;20108;-75
2021/03/28 09:09:15;;;;;;;12.82;8.82;;;;;;;-140.79;100.00;63287.88;4974681;28;20070;-76
2021/03/28 09:12:16;;;;;;;14.10;8.95;;;;;;;-140.79;100.00;63287.88;4975614;28;20035;-78
2021/03/28 09:15:04;;;;;;;13.90;8.30;;;;;;;-140.79;100.00;63287.88;4961604;28;20049;-78
2021/03/28 09:17:48;;;;;;;14.35;8.77;;;;;;;-140.79;100.00;63287.88;4979425;28;20101;-78
2021/03/28 09:20:53;;;;;;;14.15;9.20;;;;;;;-140.79;100.00;63287.88;4960025;28;20031;-78
2021/03/28 09:23:36;;;;;;;13.65;8.73;;;;;;;-140.79;100.00;63287.88;4953477;28;20043;-78
2021/03/28 09:26:13;;;;;;;13.70;8.90;;;;;;;-140.79;100.00;63287.88;4964411;28;20019;-78
2021/03/28 09:29:09;;;;;;;13.48;9.13;;;;;;;-140.79;100.00;63287.88;4977241;28;20042;-77
2021/03/28 09:31:53;;;;;;;12.30;8.48;;;;;;;-140.79;100.00;63287.88;4954529;28;20090;-76
2021/03/28 09:34:36;;;;;;;13.32;8.35;;;;;;;-140.79;100.00;63287.88;4945727;28;20031;-76
2021/03/28 09:37:31;;;;;;;11.90;7.82;;;;;;;-140.79;100.00;63287.88;4964038;28;20031;-76
2021/03/28 09:40:09;;;;;;;13.50;8.65;;;;;;;-140.79;100.00;63287.88;4960892;28;20043;-75
2021/03/28 09:43:20;;;;;;;14.30;8.30;;;;;;;-140.79;100.00;63287.88;4970335;28;20031;-76
2021/03/28 09:46:08;;;;;;;12.60;8.10;;;;;;;-140.79;100.00;63287.88;4926697;29;20132;-76
2021/03/28 09:48:34;;;;;;;12.23;8.00;;;;;;;-140.79;100.00;63287.88;4900170;29;20143;-76
2021/03/28 09:51:20;;;;;;;11.50;8.13;;;;;;;-140.79;100.00;63287.88;4935485;28;20039;-79
2021/03/28 09:54:24;;;;;;;12.27;8.00;;;;;;;-140.79;100.00;63287.88;4953374;28;20027;-76
2021/03/28 09:56:59;;;;;;;12.50;8.80;;;;;;;-140.79;100.00;63287.88;4953508;28;20460;-77
2021/03/28 09:59:46;;;;;;;11.13;8.15;;;;;;;-140.79;100.00;63287.88;4953367;28;20523;-75
2021/03/28 10:02:14;;;;;;;11.55;8.05;;;;;;;-140.79;100.00;63287.88;4953888;28;20035;-77
2021/03/28 10:05:20;;;;;;;12.13;8.15;;;;;;;-140.79;100.00;63287.88;4964726;28;20074;-75
2021/03/28 10:08:05;;;;;;;12.02;7.88;;;;;;;-140.79;100.00;63287.88;4950523;28;20086;-73
2021/03/28 10:10:42;;;;;;;14.02;8.40;;;;;;;-140.79;100.00;63287.88;4962780;28;20098;-77
2021/03/28 10:13:31;;;;;;;13.60;7.63;;;;;;;-140.79;100.00;63287.88;4960145;28;20046;-75
2021/03/28 10:16:12;;;;;;;14.68;7.40;;;;;;;-140.79;100.00;63287.88;4939637;28;20126;-83
2021/03/28 10:18:49;;;;;;;13.60;7.88;;;;;;;-140.79;100.00;63287.88;4939235;28;20047;-77
2021/03/28 10:21:23;;;;;;;11.27;7.47;;;;;;;-140.79;100.00;63287.88;4952286;28;20035;-76
2021/03/28 10:24:11;;;;;;;13.27;7.60;;;;;;;-140.79;100.00;63287.88;4944147;28;20028;-76
2021/03/28 10:26:39;;;;;;;12.75;7.90;;;;;;;-140.79;100.00;63287.88;4952426;28;20082;-75
2021/03/28 10:29:29;;;;;;;12.15;8.00;;;;;;;-140.79;100.00;63287.88;4972493;28;20043;-75
2021/03/28 10:31:57;;;;;;;;;;;;;;;-140.79;100.00;63287.88;4941004;28;20026;-77
2021/03/28 10:35:00;;;;;;;12.50;7.78;;;;;;;-140.79;100.00;63287.88;4951495;28;20448;-75
2021/03/28 10:37:47;;;;;;;13.85;8.60;;;;;;;-140.79;100.00;63287.88;4947547;28;20030;-75
2021/03/28 10:40:38;;;;;;;11.98;7.80;;;;;;;-140.79;100.00;63287.88;4954126;28;20027;-73
2021/03/28 10:43:22;;;;;;;12.10;7.63;;;;;;;-140.79;100.00;63287.88;4959283;28;20039;-75
2021/03/28 10:46:15;;;;;;;13.80;7.93;;;;;;;-140.79;100.00;63287.88;4954985;28;20508;-77
2021/03/28 10:49:08;;;;;;;13.82;8.02;;;;;;;-140.79;100.00;63287.88;4959915;28;20070;-76
2021/03/28 10:52:08;;;;;;;13.23;7.90;;;;;;;-140.79;100.00;63287.88;4952380;28;20038;-77
2021/03/28 10:55:00;;;;;;;14.07;8.23;;;;;;;-140.79;100.00;63287.88;4956014;28;20497;-75
2021/03/28 10:58:03;;;;;;;13.95;7.55;;;;;;;-140.79;100.00;63287.88;4947239;28;20556;-75
2021/03/28 11:00:43;;;;;;;14.43;8.10;;;;;;;-140.79;100.00;63287.88;4950875;28;20027;-76
2021/03/28 11:03:46;;;;;;;13.32;7.30;;;;;;;-140.79;100.00;63287.88;4959467;28;20027;-78
2021/03/28 11:06:26;;;;;;;15.50;8.38;;;;;;;-140.79;100.00;63287.88;4933459;28;20134;-78
2021/03/28 11:09:02;;;;;;;17.17;8.55;;;;;;;-140.79;100.00;63287.88;4927598;29;20031;-74
2021/03/28 11:11:53;;;;;;;16.73;8.00;;;;;;;-140.79;100.00;63287.88;4942853;29;20110;-75
2021/03/28 11:14:25;;;;;;;15.25;8.20;;;;;;;-140.79;100.00;63287.88;4923671;29;20517;-76
2021/03/28 11:17:14;;;;;;;16.45;8.27;;;;;;;-140.79;100.00;63287.88;4945404;29;20515;-75
2021/03/28 11:20:04;;;;;;;12.83;7.63;;;;;;;-140.79;100.00;63287.88;4922749;29;20501;-78
2021/03/28 11:22:50;;;;;;;;;;;;;;;-140.79;100.00;63287.88;4929352;29;20110;-78
2021/03/28 11:25:26;;;;;;;14.27;7.82;;;;;;;-140.79;100.00;63287.88;4938109;28;19931;-79
2021/03/28 11:28:17;;;;;;;16.25;7.97;;;;;;;-140.79;100.00;63287.88;4946445;29;20031;-77
2021/03/28 11:31:12;;;;;;;16.80;7.68;;;;;;;-140.79;100.00;63287.88;4925663;29;20529;-77
2021/03/28 11:34:15;;;;;;;16.60;8.20;;;;;;;-140.79;100.00;63287.88;4935236;29;20055;-79
2021/03/28 11:37:17;;;;;;;18.88;9.10;;;;;;;-140.79;100.00;63287.88;4925310;29;20114;-80
2021/03/28 11:40:24;;;;;;;14.73;8.38;;;;;;;-140.79;100.00;63287.88;4935583;29;20086;-79
2021/03/28 11:42:52;;;;;;;13.15;7.70;;;;;;;-140.79;100.00;63287.88;4931027;28;20532;-76
2021/03/28 11:45:34;;;;;;;19.17;7.97;;;;;;;-140.79;100.00;63287.88;4918969;29;20031;-75
2021/03/28 11:48:00;;;;;;;14.88;8.00;;;;;;;-140.79;100.00;63287.88;4925740;29;20118;-76
2021/03/28 11:50:32;;;;;;;14.00;7.63;;;;;;;-140.79;100.00;63287.88;4921134;29;20489;-75
2021/03/28 11:53:24;;;;;;;15.20;7.50;;;;;;;-140.79;100.00;63287.88;4927742;29;20050;-75
2021/03/28 11:56:00;;;;;;;16.23;8.25;;;;;;;-140.79;100.00;63287.88;4911866;29;20036;-75
2021/03/28 11:58:56;;;;;;;17.58;7.95;;;;;;;-140.79;100.00;63287.88;4927967;29;20056;-83
2021/03/28 12:01:55;;;;;;;15.50;8.10;;;;;;;-140.79;100.00;63287.88;4930054;29;20432;-78
2021/03/28 12:04:28;;;;;;;16.88;7.93;;;;;;;-140.79;100.00;63287.88;4935591;28;20062;-80
2021/03/28 12:07:13;;;;;;;15.88;8.18;;;;;;;-140.79;100.00;63287.88;4967229;28;20034;-81
2021/03/28 12:09:39;;;;;;;14.93;7.90;;;;;;;-140.79;100.00;63287.88;4957312;28;20515;-81
2021/03/28 12:12:19;;;;;;;16.02;7.90;;;;;;;-140.79;100.00;63287.88;4967067;28;20030;-75
2021/03/28 12:14:45;;;;;;;17.33;7.80;;;;;;;-140.79;100.00;63287.88;4957361;28;20125;-75
2021/03/28 12:17:10;;;;;;;15.80;7.65;;;;;;;-140.79;100.00;63287.88;4959736;28;20026;-83
2021/03/28 12:20:00;;;;;;;12.90;7.60;;;;;;;-140.79;100.00;63287.88;4959470;28;20047;-78